sensor_id;sensor_type;location;lat;lon;timestamp;pressure;altitude;pressure_sealevel;temperature;humidity
75745;BME280;64359;51.366;-0.222;2023-02-28T00:00:35;102906.77;;;21.54;42.69
75745;BME280;64359;51.366;-0.222;2023-02-28T00:01:39;102909.84;;;21.54;42.34
75745;BME280;64359;51.366;-0.222;2023-02-28T00:02:44;102909.79;;;21.54;41.79
75745;BME280;64359;51.366;-0.222;2023-02-28T00:03:49;102905.92;;;21.55;41.32
75745;BME280;64359;51.366;-0.222;2023-02-28T00:04:53;102909.46;;;21.56;41.37
75745;BME280;64359;51.366;-0.222;2023-02-28T00:06:05;102908.66;;;21.57;40.93
75745;BME280;64359;51.366;-0.222;2023-02-28T00:07:09;102910.63;;;21.57;41.00
75745;BME280;64359;51.366;-0.222;2023-02-28T00:08:14;102907.84;;;21.58;40.96
75745;BME280;64359;51.366;-0.222;2023-02-28T00:09:18;102905.13;;;21.58;40.88
75745;BME280;64359;51.366;-0.222;2023-02-28T00:10:25;102910.86;;;21.58;40.69
75745;BME280;64359;51.366;-0.222;2023-02-28T00:11:30;102911.52;;;21.59;40.77
75745;BME280;64359;51.366;-0.222;2023-02-28T00:12:34;102909.81;;;21.60;40.82
75745;BME280;64359;51.366;-0.222;2023-02-28T00:13:41;102910.13;;;21.60;40.86
75745;BME280;64359;51.366;-0.222;2023-02-28T00:14:46;102906.67;;;21.60;40.70
75745;BME280;64359;51.366;-0.222;2023-02-28T00:16:00;102907.67;;;21.61;40.76
75745;BME280;64359;51.366;-0.222;2023-02-28T00:17:04;102910.02;;;21.61;40.60
75745;BME280;64359;51.366;-0.222;2023-02-28T00:18:09;102909.98;;;21.62;40.80
75745;BME280;64359;51.366;-0.222;2023-02-28T00:19:14;102914.46;;;21.62;41.27
75745;BME280;64359;51.366;-0.222;2023-02-28T00:20:19;102912.23;;;21.63;41.94
75745;BME280;64359;51.366;-0.222;2023-02-28T00:21:24;102915.42;;;21.63;41.87
75745;BME280;64359;51.366;-0.222;2023-02-28T00:22:28;102912.70;;;21.64;42.73
75745;BME280;64359;51.366;-0.222;2023-02-28T00:23:33;102911.23;;;21.64;42.71
75745;BME280;64359;51.366;-0.222;2023-02-28T00:24:37;102912.49;;;21.64;43.34
75745;BME280;64359;51.366;-0.222;2023-02-28T00:25:42;102912.70;;;21.64;43.51
75745;BME280;64359;51.366;-0.222;2023-02-28T00:26:46;102908.69;;;21.64;44.08
75745;BME280;64359;51.366;-0.222;2023-02-28T00:27:51;102911.23;;;21.64;43.55
75745;BME280;64359;51.366;-0.222;2023-02-28T00:28:55;102916.70;;;21.63;43.89
75745;BME280;64359;51.366;-0.222;2023-02-28T00:30:00;102916.52;;;21.63;44.87
75745;BME280;64359;51.366;-0.222;2023-02-28T00:31:04;102913.09;;;21.63;45.11
75745;BME280;64359;51.366;-0.222;2023-02-28T00:32:09;102914.00;;;21.63;44.77
75745;BME280;64359;51.366;-0.222;2023-02-28T00:33:13;102911.35;;;21.63;44.68
75745;BME280;64359;51.366;-0.222;2023-02-28T00:34:18;102911.74;;;21.62;44.72
75745;BME280;64359;51.366;-0.222;2023-02-28T00:35:22;102914.61;;;21.63;44.18
75745;BME280;64359;51.366;-0.222;2023-02-28T00:36:26;102907.98;;;21.62;44.22
75745;BME280;64359;51.366;-0.222;2023-02-28T00:37:31;102911.98;;;21.62;43.53
75745;BME280;64359;51.366;-0.222;2023-02-28T00:38:36;102914.55;;;21.61;44.16
75745;BME280;64359;51.366;-0.222;2023-02-28T00:39:41;102914.75;;;21.61;44.11
75745;BME280;64359;51.366;-0.222;2023-02-28T00:40:45;102914.00;;;21.61;43.89
75745;BME280;64359;51.366;-0.222;2023-02-28T00:41:50;102915.70;;;21.61;44.18
75745;BME280;64359;51.366;-0.222;2023-02-28T00:42:54;102913.89;;;21.61;43.88
75745;BME280;64359;51.366;-0.222;2023-02-28T00:43:58;102914.13;;;21.60;44.06
75745;BME280;64359;51.366;-0.222;2023-02-28T00:45:04;102918.98;;;21.60;43.81
75745;BME280;64359;51.366;-0.222;2023-02-28T00:46:09;102918.66;;;21.60;43.65
75745;BME280;64359;51.366;-0.222;2023-02-28T00:47:13;102917.38;;;21.60;44.15
75745;BME280;64359;51.366;-0.222;2023-02-28T00:48:17;102918.69;;;21.60;44.26
75745;BME280;64359;51.366;-0.222;2023-02-28T00:49:22;102918.69;;;21.59;44.08
75745;BME280;64359;51.366;-0.222;2023-02-28T00:50:26;102917.58;;;21.60;43.25
75745;BME280;64359;51.366;-0.222;2023-02-28T00:51:31;102920.09;;;21.60;43.13
75745;BME280;64359;51.366;-0.222;2023-02-28T00:52:35;102922.40;;;21.60;41.55
75745;BME280;64359;51.366;-0.222;2023-02-28T00:53:40;102916.66;;;21.60;41.23
75745;BME280;64359;51.366;-0.222;2023-02-28T00:54:44;102915.84;;;21.61;41.37
75745;BME280;64359;51.366;-0.222;2023-02-28T00:55:49;102915.77;;;21.62;41.29
75745;BME280;64359;51.366;-0.222;2023-02-28T00:56:53;102915.91;;;21.62;41.64
75745;BME280;64359;51.366;-0.222;2023-02-28T00:57:58;102919.11;;;21.63;41.21
75745;BME280;64359;51.366;-0.222;2023-02-28T00:59:02;102922.32;;;21.63;41.26
75745;BME280;64359;51.366;-0.222;2023-02-28T01:00:09;102919.20;;;21.64;40.86
75745;BME280;64359;51.366;-0.222;2023-02-28T01:01:14;102922.40;;;21.64;40.74
75745;BME280;64359;51.366;-0.222;2023-02-28T01:02:18;102918.35;;;21.65;41.58
75745;BME280;64359;51.366;-0.222;2023-02-28T01:03:23;102919.02;;;21.66;41.52
75745;BME280;64359;51.366;-0.222;2023-02-28T01:04:27;102920.45;;;21.66;41.84
75745;BME280;64359;51.366;-0.222;2023-02-28T01:05:32;102920.77;;;21.66;41.30
75745;BME280;64359;51.366;-0.222;2023-02-28T01:06:37;102919.14;;;21.66;41.28
75745;BME280;64359;51.366;-0.222;2023-02-28T01:07:41;102920.20;;;21.67;41.06
75745;BME280;64359;51.366;-0.222;2023-02-28T01:08:46;102922.46;;;21.68;41.23
75745;BME280;64359;51.366;-0.222;2023-02-28T01:09:50;102922.96;;;21.68;41.13
75745;BME280;64359;51.366;-0.222;2023-02-28T01:10:55;102923.17;;;21.68;41.14
75745;BME280;64359;51.366;-0.222;2023-02-28T01:11:59;102922.14;;;21.69;41.41
75745;BME280;64359;51.366;-0.222;2023-02-28T01:13:04;102921.25;;;21.69;41.04
75745;BME280;64359;51.366;-0.222;2023-02-28T01:14:10;102924.11;;;21.69;41.89
75745;BME280;64359;51.366;-0.222;2023-02-28T01:15:16;102925.57;;;21.69;42.74
75745;BME280;64359;51.366;-0.222;2023-02-28T01:16:20;102927.73;;;21.69;42.61
75745;BME280;64359;51.366;-0.222;2023-02-28T01:17:25;102925.90;;;21.69;42.69
75745;BME280;64359;51.366;-0.222;2023-02-28T01:18:29;102926.08;;;21.69;42.42
75745;BME280;64359;51.366;-0.222;2023-02-28T01:19:34;102925.71;;;21.70;41.60
75745;BME280;64359;51.366;-0.222;2023-02-28T01:20:39;102927.11;;;21.70;42.74
75745;BME280;64359;51.366;-0.222;2023-02-28T01:21:44;102932.37;;;21.70;43.54
75745;BME280;64359;51.366;-0.222;2023-02-28T01:22:48;102931.84;;;21.69;43.18
75745;BME280;64359;51.366;-0.222;2023-02-28T01:23:52;102930.08;;;21.69;43.91
75745;BME280;64359;51.366;-0.222;2023-02-28T01:25:00;102931.70;;;21.69;43.82
75745;BME280;64359;51.366;-0.222;2023-02-28T01:26:07;102931.73;;;21.69;44.36
75745;BME280;64359;51.366;-0.222;2023-02-28T01:27:12;102933.59;;;21.68;44.73
75745;BME280;64359;51.366;-0.222;2023-02-28T01:28:16;102933.42;;;21.68;44.38
75745;BME280;64359;51.366;-0.222;2023-02-28T01:29:20;102934.22;;;21.67;44.16
75745;BME280;64359;51.366;-0.222;2023-02-28T01:30:25;102931.91;;;21.67;43.97
75745;BME280;64359;51.366;-0.222;2023-02-28T01:31:29;102932.28;;;21.67;43.48
75745;BME280;64359;51.366;-0.222;2023-02-28T01:32:33;102935.20;;;21.67;43.46
75745;BME280;64359;51.366;-0.222;2023-02-28T01:33:38;102933.98;;;21.66;43.99
75745;BME280;64359;51.366;-0.222;2023-02-28T01:34:43;102931.31;;;21.66;43.76
75745;BME280;64359;51.366;-0.222;2023-02-28T01:35:47;102936.73;;;21.66;43.84
75745;BME280;64359;51.366;-0.222;2023-02-28T01:36:51;102936.05;;;21.65;43.37
75745;BME280;64359;51.366;-0.222;2023-02-28T01:37:56;102937.85;;;21.65;43.59
75745;BME280;64359;51.366;-0.222;2023-02-28T01:39:00;102938.42;;;21.65;43.43
75745;BME280;64359;51.366;-0.222;2023-02-28T01:40:06;102936.27;;;21.65;43.14
75745;BME280;64359;51.366;-0.222;2023-02-28T01:41:17;102935.59;;;21.64;42.39
75745;BME280;64359;51.366;-0.222;2023-02-28T01:42:21;102937.02;;;21.64;43.09
75745;BME280;64359;51.366;-0.222;2023-02-28T01:43:27;102935.23;;;21.65;43.00
75745;BME280;64359;51.366;-0.222;2023-02-28T01:45:00;102934.65;;;21.65;43.48
75745;BME280;64359;51.366;-0.222;2023-02-28T01:46:05;102932.39;;;21.64;42.37
75745;BME280;64359;51.366;-0.222;2023-02-28T01:47:09;102930.77;;;21.64;41.42
75745;BME280;64359;51.366;-0.222;2023-02-28T01:48:14;102934.20;;;21.64;41.24
75745;BME280;64359;51.366;-0.222;2023-02-28T01:49:19;102931.62;;;21.64;41.00
75745;BME280;64359;51.366;-0.222;2023-02-28T01:50:25;102931.22;;;21.65;40.89
75745;BME280;64359;51.366;-0.222;2023-02-28T01:51:33;102933.48;;;21.66;41.04
75745;BME280;64359;51.366;-0.222;2023-02-28T01:52:38;102933.27;;;21.66;41.10
75745;BME280;64359;51.366;-0.222;2023-02-28T01:53:45;102934.11;;;21.67;40.99
75745;BME280;64359;51.366;-0.222;2023-02-28T01:54:54;102929.19;;;21.67;40.92
75745;BME280;64359;51.366;-0.222;2023-02-28T01:55:59;102928.99;;;21.67;40.89
75745;BME280;64359;51.366;-0.222;2023-02-28T01:57:05;102934.54;;;21.68;40.91
75745;BME280;64359;51.366;-0.222;2023-02-28T01:58:11;102935.92;;;21.68;40.97
75745;BME280;64359;51.366;-0.222;2023-02-28T01:59:23;102933.70;;;21.69;42.17
75745;BME280;64359;51.366;-0.222;2023-02-28T02:00:31;102932.25;;;21.69;41.15
75745;BME280;64359;51.366;-0.222;2023-02-28T02:01:36;102930.25;;;21.69;41.18
75745;BME280;64359;51.366;-0.222;2023-02-28T02:02:41;102927.31;;;21.70;41.30
75745;BME280;64359;51.366;-0.222;2023-02-28T02:03:47;102926.22;;;21.70;41.10
75745;BME280;64359;51.366;-0.222;2023-02-28T02:05:03;102929.63;;;21.70;41.08
75745;BME280;64359;51.366;-0.222;2023-02-28T02:06:08;102931.80;;;21.70;40.61
75745;BME280;64359;51.366;-0.222;2023-02-28T02:07:12;102933.73;;;21.71;40.51
75745;BME280;64359;51.366;-0.222;2023-02-28T02:08:19;102933.88;;;21.71;40.58
75745;BME280;64359;51.366;-0.222;2023-02-28T02:09:25;102936.02;;;21.71;40.95
75745;BME280;64359;51.366;-0.222;2023-02-28T02:10:32;102935.48;;;21.71;41.11
75745;BME280;64359;51.366;-0.222;2023-02-28T02:11:38;102935.96;;;21.72;41.45
75745;BME280;64359;51.366;-0.222;2023-02-28T02:12:58;102935.98;;;21.72;41.04
75745;BME280;64359;51.366;-0.222;2023-02-28T02:14:16;102939.45;;;21.71;41.86
75745;BME280;64359;51.366;-0.222;2023-02-28T02:15:31;102940.51;;;21.72;42.49
75745;BME280;64359;51.366;-0.222;2023-02-28T02:16:44;102936.59;;;21.71;42.17
75745;BME280;64359;51.366;-0.222;2023-02-28T02:17:55;102934.82;;;21.71;42.88
75745;BME280;64359;51.366;-0.222;2023-02-28T02:20:46;102944.10;;;21.70;43.49
75745;BME280;64359;51.366;-0.222;2023-02-28T02:22:20;102942.61;;;21.69;43.26
75745;BME280;64359;51.366;-0.222;2023-02-28T02:23:39;102945.41;;;21.68;43.76
75745;BME280;64359;51.366;-0.222;2023-02-28T02:25:01;102942.41;;;21.67;43.44
75745;BME280;64359;51.366;-0.222;2023-02-28T02:26:27;102942.92;;;21.65;43.69
75745;BME280;64359;51.366;-0.222;2023-02-28T02:27:51;102941.19;;;21.65;43.42
75745;BME280;64359;51.366;-0.222;2023-02-28T02:29:23;102940.05;;;21.63;43.29
75745;BME280;64359;51.366;-0.222;2023-02-28T02:30:55;102937.81;;;21.62;43.51
75745;BME280;64359;51.366;-0.222;2023-02-28T02:32:16;102937.10;;;21.62;43.03
75745;BME280;64359;51.366;-0.222;2023-02-28T02:34:58;102933.17;;;21.60;42.50
75745;BME280;64359;51.366;-0.222;2023-02-28T02:36:08;102936.45;;;21.59;42.88
75745;BME280;64359;51.366;-0.222;2023-02-28T02:37:26;102934.98;;;21.59;42.77
75745;BME280;64359;51.366;-0.222;2023-02-28T02:38:37;102938.44;;;21.59;43.06
75745;BME280;64359;51.366;-0.222;2023-02-28T02:39:48;102936.48;;;21.59;42.47
75745;BME280;64359;51.366;-0.222;2023-02-28T02:40:58;102936.98;;;21.59;42.65
75745;BME280;64359;51.366;-0.222;2023-02-28T02:42:13;102938.24;;;21.59;41.60
75745;BME280;64359;51.366;-0.222;2023-02-28T02:43:22;102935.30;;;21.60;41.43
75745;BME280;64359;51.366;-0.222;2023-02-28T02:44:34;102939.39;;;21.61;41.03
75745;BME280;64359;51.366;-0.222;2023-02-28T02:45:45;102937.16;;;21.61;41.80
75745;BME280;64359;51.366;-0.222;2023-02-28T02:46:53;102938.59;;;21.61;41.02
75745;BME280;64359;51.366;-0.222;2023-02-28T02:48:00;102936.84;;;21.63;40.84
75745;BME280;64359;51.366;-0.222;2023-02-28T02:49:08;102934.59;;;21.64;41.45
75745;BME280;64359;51.366;-0.222;2023-02-28T02:51:22;102934.67;;;21.64;41.52
75745;BME280;64359;51.366;-0.222;2023-02-28T02:52:31;102931.16;;;21.65;41.71
75745;BME280;64359;51.366;-0.222;2023-02-28T02:53:42;102930.93;;;21.66;41.46
75745;BME280;64359;51.366;-0.222;2023-02-28T02:54:50;102934.36;;;21.66;41.06
75745;BME280;64359;51.366;-0.222;2023-02-28T02:55:59;102936.08;;;21.67;41.05
75745;BME280;64359;51.366;-0.222;2023-02-28T02:57:08;102934.42;;;21.67;41.50
75745;BME280;64359;51.366;-0.222;2023-02-28T02:58:16;102929.67;;;21.68;41.03
75745;BME280;64359;51.366;-0.222;2023-02-28T02:59:23;102927.65;;;21.68;41.13
75745;BME280;64359;51.366;-0.222;2023-02-28T03:00:34;102922.34;;;21.69;41.36
75745;BME280;64359;51.366;-0.222;2023-02-28T03:01:41;102919.56;;;21.69;41.28
75745;BME280;64359;51.366;-0.222;2023-02-28T03:02:46;102919.20;;;21.69;42.18
75745;BME280;64359;51.366;-0.222;2023-02-28T03:03:51;102920.42;;;21.70;41.74
75745;BME280;64359;51.366;-0.222;2023-02-28T03:04:59;102926.52;;;21.70;41.96
75745;BME280;64359;51.366;-0.222;2023-02-28T03:06:06;102927.77;;;21.71;42.03
75745;BME280;64359;51.366;-0.222;2023-02-28T03:07:11;102924.88;;;21.70;42.20
75745;BME280;64359;51.366;-0.222;2023-02-28T03:08:15;102925.23;;;21.71;41.71
75745;BME280;64359;51.366;-0.222;2023-02-28T03:09:20;102921.02;;;21.71;42.28
75745;BME280;64359;51.366;-0.222;2023-02-28T03:10:31;102921.38;;;21.71;42.12
75745;BME280;64359;51.366;-0.222;2023-02-28T03:11:37;102924.25;;;21.72;42.50
75745;BME280;64359;51.366;-0.222;2023-02-28T03:12:47;102922.09;;;21.71;42.40
75745;BME280;64359;51.366;-0.222;2023-02-28T03:14:25;102921.16;;;21.71;42.17
75745;BME280;64359;51.366;-0.222;2023-02-28T03:15:36;102920.77;;;21.70;42.73
75745;BME280;64359;51.366;-0.222;2023-02-28T03:17:13;102920.05;;;21.70;42.19
75745;BME280;64359;51.366;-0.222;2023-02-28T03:18:26;102920.34;;;21.69;43.02
75745;BME280;64359;51.366;-0.222;2023-02-28T03:19:49;102918.78;;;21.68;42.96
75745;BME280;64359;51.366;-0.222;2023-02-28T03:21:02;102915.23;;;21.68;42.92
75745;BME280;64359;51.366;-0.222;2023-02-28T03:22:17;102912.17;;;21.67;42.47
75745;BME280;64359;51.366;-0.222;2023-02-28T03:23:29;102906.84;;;21.66;42.72
75745;BME280;64359;51.366;-0.222;2023-02-28T03:24:43;102911.77;;;21.66;43.08
75745;BME280;64359;51.366;-0.222;2023-02-28T03:25:56;102913.95;;;21.66;43.01
75745;BME280;64359;51.366;-0.222;2023-02-28T03:27:09;102915.43;;;21.65;43.01
75745;BME280;64359;51.366;-0.222;2023-02-28T03:28:19;102919.26;;;21.65;42.84
75745;BME280;64359;51.366;-0.222;2023-02-28T03:29:31;102923.46;;;21.65;42.72
75745;BME280;64359;51.366;-0.222;2023-02-28T03:30:45;102920.23;;;21.64;42.64
75745;BME280;64359;51.366;-0.222;2023-02-28T03:32:00;102920.88;;;21.63;42.47
75745;BME280;64359;51.366;-0.222;2023-02-28T03:33:10;102920.14;;;21.63;42.53
75745;BME280;64359;51.366;-0.222;2023-02-28T03:34:19;102921.42;;;21.63;42.87
75745;BME280;64359;51.366;-0.222;2023-02-28T03:35:29;102924.52;;;21.63;42.43
75745;BME280;64359;51.366;-0.222;2023-02-28T03:36:37;102923.80;;;21.63;42.39
75745;BME280;64359;51.366;-0.222;2023-02-28T03:37:48;102926.56;;;21.62;42.82
75745;BME280;64359;51.366;-0.222;2023-02-28T03:38:57;102928.00;;;21.63;42.76
75745;BME280;64359;51.366;-0.222;2023-02-28T03:40:08;102930.23;;;21.62;42.45
75745;BME280;64359;51.366;-0.222;2023-02-28T03:41:19;102930.20;;;21.62;42.80
75745;BME280;64359;51.366;-0.222;2023-02-28T03:42:27;102930.73;;;21.62;42.41
75745;BME280;64359;51.366;-0.222;2023-02-28T03:43:35;102929.45;;;21.62;42.29
75745;BME280;64359;51.366;-0.222;2023-02-28T03:44:45;102928.91;;;21.62;42.61
75745;BME280;64359;51.366;-0.222;2023-02-28T03:45:53;102929.08;;;21.63;41.63
75745;BME280;64359;51.366;-0.222;2023-02-28T03:47:03;102931.20;;;21.63;41.69
75745;BME280;64359;51.366;-0.222;2023-02-28T03:48:12;102926.77;;;21.64;41.06
75745;BME280;64359;51.366;-0.222;2023-02-28T03:49:20;102931.63;;;21.64;40.76
75745;BME280;64359;51.366;-0.222;2023-02-28T03:50:29;102934.82;;;21.65;40.81
75745;BME280;64359;51.366;-0.222;2023-02-28T03:51:39;102933.51;;;21.65;40.70
75745;BME280;64359;51.366;-0.222;2023-02-28T03:52:48;102930.88;;;21.66;40.78
75745;BME280;64359;51.366;-0.222;2023-02-28T03:53:56;102929.05;;;21.67;40.89
75745;BME280;64359;51.366;-0.222;2023-02-28T03:55:05;102927.51;;;21.68;41.48
75745;BME280;64359;51.366;-0.222;2023-02-28T03:56:17;102932.02;;;21.68;41.42
75745;BME280;64359;51.366;-0.222;2023-02-28T03:57:26;102929.10;;;21.68;41.54
75745;BME280;64359;51.366;-0.222;2023-02-28T03:58:31;102929.28;;;21.68;41.00
75745;BME280;64359;51.366;-0.222;2023-02-28T03:59:39;102931.05;;;21.66;41.07
75745;BME280;64359;51.366;-0.222;2023-02-28T04:00:48;102934.63;;;21.67;41.84
75745;BME280;64359;51.366;-0.222;2023-02-28T04:01:55;102935.88;;;21.67;41.45
75745;BME280;64359;51.366;-0.222;2023-02-28T04:03:02;102934.93;;;21.67;41.98
75745;BME280;64359;51.366;-0.222;2023-02-28T04:04:07;102936.90;;;21.68;42.28
75745;BME280;64359;51.366;-0.222;2023-02-28T04:05:11;102938.70;;;21.68;42.07
75745;BME280;64359;51.366;-0.222;2023-02-28T04:06:18;102939.21;;;21.68;42.03
75745;BME280;64359;51.366;-0.222;2023-02-28T04:07:23;102939.55;;;21.68;42.56
75745;BME280;64359;51.366;-0.222;2023-02-28T04:08:28;102941.51;;;21.69;42.42
75745;BME280;64359;51.366;-0.222;2023-02-28T04:09:32;102939.56;;;21.68;42.39
75745;BME280;64359;51.366;-0.222;2023-02-28T04:10:37;102939.52;;;21.69;42.39
75745;BME280;64359;51.366;-0.222;2023-02-28T04:11:44;102939.34;;;21.69;41.93
75745;BME280;64359;51.366;-0.222;2023-02-28T04:12:49;102941.08;;;21.70;41.61
75745;BME280;64359;51.366;-0.222;2023-02-28T04:13:53;102938.59;;;21.69;41.91
75745;BME280;64359;51.366;-0.222;2023-02-28T04:14:57;102938.02;;;21.69;42.13
75745;BME280;64359;51.366;-0.222;2023-02-28T04:16:02;102936.19;;;21.70;42.41
75745;BME280;64359;51.366;-0.222;2023-02-28T04:17:15;102934.59;;;21.69;42.26
75745;BME280;64359;51.366;-0.222;2023-02-28T04:18:19;102932.23;;;21.69;42.46
75745;BME280;64359;51.366;-0.222;2023-02-28T04:19:23;102929.86;;;21.70;42.21
75745;BME280;64359;51.366;-0.222;2023-02-28T04:20:28;102929.34;;;21.69;41.81
75745;BME280;64359;51.366;-0.222;2023-02-28T04:21:33;102928.45;;;21.69;42.07
75745;BME280;64359;51.366;-0.222;2023-02-28T04:22:38;102928.99;;;21.69;41.87
75745;BME280;64359;51.366;-0.222;2023-02-28T04:23:42;102928.11;;;21.69;42.25
75745;BME280;64359;51.366;-0.222;2023-02-28T04:24:47;102929.20;;;21.69;42.33
75745;BME280;64359;51.366;-0.222;2023-02-28T04:25:54;102933.52;;;21.69;42.62
75745;BME280;64359;51.366;-0.222;2023-02-28T04:26:59;102932.85;;;21.69;42.45
75745;BME280;64359;51.366;-0.222;2023-02-28T04:28:04;102935.25;;;21.68;42.50
75745;BME280;64359;51.366;-0.222;2023-02-28T04:29:08;102935.11;;;21.68;42.27
75745;BME280;64359;51.366;-0.222;2023-02-28T04:30:14;102934.77;;;21.67;42.26
75745;BME280;64359;51.366;-0.222;2023-02-28T04:31:18;102934.99;;;21.67;42.10
75745;BME280;64359;51.366;-0.222;2023-02-28T04:32:23;102933.73;;;21.67;42.13
75745;BME280;64359;51.366;-0.222;2023-02-28T04:33:27;102936.67;;;21.66;42.11
75745;BME280;64359;51.366;-0.222;2023-02-28T04:34:32;102935.63;;;21.66;42.16
75745;BME280;64359;51.366;-0.222;2023-02-28T04:35:37;102935.62;;;21.66;42.34
75745;BME280;64359;51.366;-0.222;2023-02-28T04:36:41;102939.08;;;21.66;42.57
75745;BME280;64359;51.366;-0.222;2023-02-28T04:37:45;102941.36;;;21.66;41.77
75745;BME280;64359;51.366;-0.222;2023-02-28T04:38:50;102939.16;;;21.67;41.78
75745;BME280;64359;51.366;-0.222;2023-02-28T04:39:54;102940.99;;;21.67;41.78
75745;BME280;64359;51.366;-0.222;2023-02-28T04:41:02;102946.16;;;21.67;41.84
75745;BME280;64359;51.366;-0.222;2023-02-28T04:42:07;102949.45;;;21.67;41.58
75745;BME280;64359;51.366;-0.222;2023-02-28T04:43:11;102946.73;;;21.67;41.42
75745;BME280;64359;51.366;-0.222;2023-02-28T04:44:16;102952.27;;;21.68;41.22
75745;BME280;64359;51.366;-0.222;2023-02-28T04:45:20;102952.45;;;21.68;41.38
75745;BME280;64359;51.366;-0.222;2023-02-28T04:46:25;102950.40;;;21.68;41.29
75745;BME280;64359;51.366;-0.222;2023-02-28T04:47:29;102949.66;;;21.68;41.11
75745;BME280;64359;51.366;-0.222;2023-02-28T04:48:36;102953.95;;;21.69;41.07
75745;BME280;64359;51.366;-0.222;2023-02-28T04:49:40;102954.30;;;21.69;41.18
75745;BME280;64359;51.366;-0.222;2023-02-28T04:50:45;102953.92;;;21.69;40.85
75745;BME280;64359;51.366;-0.222;2023-02-28T04:51:50;102958.04;;;21.70;41.36
75745;BME280;64359;51.366;-0.222;2023-02-28T04:52:55;102953.47;;;21.71;41.73
75745;BME280;64359;51.366;-0.222;2023-02-28T04:54:00;102956.90;;;21.70;41.26
75745;BME280;64359;51.366;-0.222;2023-02-28T04:55:05;102956.32;;;21.71;41.41
75745;BME280;64359;51.366;-0.222;2023-02-28T04:56:13;102957.89;;;21.71;41.43
75745;BME280;64359;51.366;-0.222;2023-02-28T04:57:17;102959.90;;;21.71;41.56
75745;BME280;64359;51.366;-0.222;2023-02-28T04:58:21;102958.27;;;21.71;41.47
75745;BME280;64359;51.366;-0.222;2023-02-28T04:59:26;102954.61;;;21.72;41.67
75745;BME280;64359;51.366;-0.222;2023-02-28T05:00:31;102952.98;;;21.72;41.68
75745;BME280;64359;51.366;-0.222;2023-02-28T05:01:35;102954.44;;;21.72;42.22
75745;BME280;64359;51.366;-0.222;2023-02-28T05:02:40;102952.23;;;21.72;42.09
75745;BME280;64359;51.366;-0.222;2023-02-28T05:03:44;102950.79;;;21.72;41.82
75745;BME280;64359;51.366;-0.222;2023-02-28T05:04:49;102952.23;;;21.72;42.14
75745;BME280;64359;51.366;-0.222;2023-02-28T05:05:53;102956.38;;;21.72;41.83
75745;BME280;64359;51.366;-0.222;2023-02-28T05:06:57;102957.55;;;21.71;42.21
75745;BME280;64359;51.366;-0.222;2023-02-28T05:08:01;102958.95;;;21.72;41.71
75745;BME280;64359;51.366;-0.222;2023-02-28T05:09:06;102957.48;;;21.72;41.61
75745;BME280;64359;51.366;-0.222;2023-02-28T05:10:12;102961.48;;;21.72;41.60
75745;BME280;64359;51.366;-0.222;2023-02-28T05:11:18;102963.48;;;21.71;41.80
75745;BME280;64359;51.366;-0.222;2023-02-28T05:12:23;102960.09;;;21.71;41.47
75745;BME280;64359;51.366;-0.222;2023-02-28T05:13:28;102959.21;;;21.71;41.82
75745;BME280;64359;51.366;-0.222;2023-02-28T05:14:32;102961.58;;;21.71;42.15
75745;BME280;64359;51.366;-0.222;2023-02-28T05:15:36;102960.69;;;21.71;42.05
75745;BME280;64359;51.366;-0.222;2023-02-28T05:16:41;102964.52;;;21.70;41.85
75745;BME280;64359;51.366;-0.222;2023-02-28T05:17:45;102962.52;;;21.70;42.03
75745;BME280;64359;51.366;-0.222;2023-02-28T05:18:50;102965.80;;;21.70;41.81
75745;BME280;64359;51.366;-0.222;2023-02-28T05:19:56;102965.83;;;21.70;42.00
75745;BME280;64359;51.366;-0.222;2023-02-28T05:21:01;102964.66;;;21.69;42.06
75745;BME280;64359;51.366;-0.222;2023-02-28T05:22:11;102965.17;;;21.69;41.79
75745;BME280;64359;51.366;-0.222;2023-02-28T05:23:18;102965.03;;;21.69;41.86
75745;BME280;64359;51.366;-0.222;2023-02-28T05:24:23;102961.84;;;21.68;41.98
75745;BME280;64359;51.366;-0.222;2023-02-28T05:25:28;102966.00;;;21.68;42.06
75745;BME280;64359;51.366;-0.222;2023-02-28T05:26:35;102961.21;;;21.67;42.05
75745;BME280;64359;51.366;-0.222;2023-02-28T05:27:39;102964.30;;;21.67;42.03
75745;BME280;64359;51.366;-0.222;2023-02-28T05:28:44;102962.92;;;21.66;42.22
75745;BME280;64359;51.366;-0.222;2023-02-28T05:29:48;102960.55;;;21.66;42.07
75745;BME280;64359;51.366;-0.222;2023-02-28T05:30:52;102963.12;;;21.66;42.02
75745;BME280;64359;51.366;-0.222;2023-02-28T05:31:57;102961.33;;;21.66;42.00
75745;BME280;64359;51.366;-0.222;2023-02-28T05:33:01;102959.48;;;21.66;41.97
75745;BME280;64359;51.366;-0.222;2023-02-28T05:34:06;102959.13;;;21.66;41.50
75745;BME280;64359;51.366;-0.222;2023-02-28T05:35:11;102959.83;;;21.66;41.54
75745;BME280;64359;51.366;-0.222;2023-02-28T05:36:16;102962.15;;;21.67;41.65
75745;BME280;64359;51.366;-0.222;2023-02-28T05:37:20;102961.95;;;21.67;41.23
75745;BME280;64359;51.366;-0.222;2023-02-28T05:38:25;102964.60;;;21.67;41.35
75745;BME280;64359;51.366;-0.222;2023-02-28T05:39:29;102965.52;;;21.67;41.56
75745;BME280;64359;51.366;-0.222;2023-02-28T05:40:34;102966.20;;;21.68;41.55
75745;BME280;64359;51.366;-0.222;2023-02-28T05:41:38;102967.29;;;21.68;41.53
75745;BME280;64359;51.366;-0.222;2023-02-28T05:42:43;102973.17;;;21.69;41.53
75745;BME280;64359;51.366;-0.222;2023-02-28T05:43:47;102974.80;;;21.68;41.60
75745;BME280;64359;51.366;-0.222;2023-02-28T05:44:52;102974.28;;;21.68;41.53
75745;BME280;64359;51.366;-0.222;2023-02-28T05:45:56;102977.65;;;21.69;41.43
75745;BME280;64359;51.366;-0.222;2023-02-28T05:47:01;102982.52;;;21.69;41.04
75745;BME280;64359;51.366;-0.222;2023-02-28T05:48:06;102982.81;;;21.70;41.01
75745;BME280;64359;51.366;-0.222;2023-02-28T05:49:10;102987.34;;;21.70;41.32
75745;BME280;64359;51.366;-0.222;2023-02-28T05:50:14;102984.79;;;21.70;41.34
75745;BME280;64359;51.366;-0.222;2023-02-28T05:51:19;102987.08;;;21.71;41.35